createdAt,value
2017-09-27T00:02:04.883Z,102206.53
2017-09-27T00:04:33.502Z,102204.80
2017-09-27T00:07:02.165Z,102204.41
2017-09-27T00:09:30.784Z,102212.56
2017-09-27T00:11:59.495Z,102215.56
2017-09-27T00:14:28.149Z,102211.30
2017-09-27T00:16:56.805Z,102212.59
2017-09-27T00:19:25.480Z,102210.43
2017-09-27T00:21:54.135Z,102209.13
2017-09-27T00:24:22.826Z,102208.30
2017-09-27T00:26:51.462Z,102207.06
2017-09-27T00:29:20.128Z,102210.53
2017-09-27T00:31:48.792Z,102207.98
2017-09-27T00:34:17.414Z,102209.31
2017-09-27T00:36:46.104Z,102203.30
2017-09-27T00:39:14.771Z,102204.12
2017-09-27T00:41:43.397Z,102203.28
2017-09-27T00:44:11.925Z,102200.76
2017-09-27T00:46:40.422Z,102205.02
2017-09-27T00:49:09.115Z,102207.17
2017-09-27T00:51:37.749Z,102208.08
2017-09-27T00:54:06.378Z,102212.78
2017-09-27T00:56:34.748Z,102208.52
2017-09-27T00:59:03.098Z,102214.10
2017-09-27T01:01:31.774Z,102216.73
2017-09-27T01:04:00.402Z,102215.03
2017-09-27T01:06:29.033Z,102210.71
2017-09-27T01:08:57.701Z,102212.39
2017-09-27T01:11:26.026Z,102209.42
2017-09-27T01:13:54.691Z,102212.06
2017-09-27T01:16:23.351Z,102210.23
2017-09-27T01:18:51.978Z,102209.75
2017-09-27T01:21:20.334Z,102206.34
2017-09-27T01:23:48.652Z,102210.23
2017-09-27T01:26:17.020Z,102207.98
2017-09-27T01:28:45.678Z,102203.36
2017-09-27T01:31:14.317Z,102204.95
2017-09-27T01:33:43.038Z,102198.00
2017-09-27T01:36:11.204Z,102203.25
2017-09-27T01:38:39.523Z,102200.61
2017-09-27T01:41:08.236Z,102201.88
2017-09-27T01:43:36.533Z,102206.11
2017-09-27T01:46:04.879Z,102200.00
2017-09-27T01:48:37.258Z,102205.12
2017-09-27T01:51:05.969Z,102196.58
2017-09-27T01:53:34.635Z,102193.24
2017-09-27T01:56:02.982Z,102195.31
2017-09-27T01:58:35.433Z,102189.31
2017-09-27T02:01:04.130Z,102190.45
2017-09-27T02:03:32.745Z,102186.11
2017-09-27T02:06:01.381Z,102192.53
2017-09-27T02:08:30.082Z,102198.89
2017-09-27T02:10:58.714Z,102193.70
2017-09-27T02:13:27.390Z,102199.28
2017-09-27T02:16:00.550Z,102203.94
2017-09-27T02:18:29.212Z,102197.48
2017-09-27T02:20:57.841Z,102202.62
2017-09-27T02:23:26.461Z,102196.14
2017-09-27T02:25:55.130Z,102194.81
2017-09-27T02:28:23.785Z,102191.09
2017-09-27T02:30:52.453Z,102195.38
2017-09-27T02:33:21.091Z,102185.42
2017-09-27T02:35:49.741Z,102189.80
2017-09-27T02:38:18.433Z,102185.78
2017-09-27T02:40:47.097Z,102191.79
2017-09-27T02:43:15.730Z,102186.95
2017-09-27T02:45:44.404Z,102185.67
2017-09-27T02:48:13.042Z,102183.87
2017-09-27T02:50:41.653Z,102187.70
2017-09-27T02:53:10.314Z,102182.58
2017-09-27T02:55:38.965Z,102186.87
2017-09-27T02:58:07.666Z,102185.97
2017-09-27T03:00:36.355Z,102185.13
2017-09-27T03:03:04.978Z,102187.27
2017-09-27T03:05:33.657Z,102191.91
2017-09-27T03:08:02.278Z,102192.75
2017-09-27T03:10:31.058Z,102189.69
2017-09-27T03:12:59.722Z,102194.02
2017-09-27T03:15:28.333Z,102190.17
2017-09-27T03:17:56.994Z,102188.09
2017-09-27T03:20:25.615Z,102191.01
2017-09-27T03:22:54.249Z,102189.30
2017-09-27T03:25:22.765Z,102186.23
2017-09-27T03:27:51.286Z,102188.79
2017-09-27T03:30:19.908Z,102198.22
2017-09-27T03:32:48.593Z,102201.30
2017-09-27T03:35:16.989Z,102192.33
2017-09-27T03:37:45.597Z,102185.40
2017-09-27T03:40:14.253Z,102193.20
2017-09-27T03:42:42.869Z,102196.98
2017-09-27T03:45:11.583Z,102192.57
2017-09-27T03:47:40.201Z,102202.87
2017-09-27T03:50:08.814Z,102205.84
2017-09-27T03:52:37.533Z,102201.52
2017-09-27T03:55:06.181Z,102208.39
2017-09-27T03:57:34.882Z,102207.09
2017-09-27T04:00:03.382Z,102201.06
2017-09-27T04:02:32.078Z,102209.23
2017-09-27T04:05:00.730Z,102203.59
2017-09-27T04:07:29.349Z,102215.63
2017-09-27T04:09:58.009Z,102210.88
2017-09-27T04:12:26.679Z,102205.33
2017-09-27T04:14:55.302Z,102205.69
2017-09-27T04:17:23.933Z,102206.11
2017-09-27T04:19:52.580Z,102203.05
2017-09-27T04:22:21.198Z,102197.94
2017-09-27T04:24:49.852Z,102206.95
2017-09-27T04:27:18.560Z,102202.56
2017-09-27T04:29:48.731Z,102200.73
2017-09-27T04:32:17.405Z,102201.28
2017-09-27T04:34:46.016Z,102198.61
2017-09-27T04:37:15.865Z,102193.38
2017-09-27T04:39:45.629Z,102191.22
2017-09-27T04:42:16.326Z,102195.09
2017-09-27T04:44:45.006Z,102189.95
2017-09-27T04:47:13.667Z,102197.22
2017-09-27T04:49:42.314Z,102195.09
2017-09-27T04:52:10.927Z,102192.93
2017-09-27T04:54:39.597Z,102196.77
2017-09-27T04:57:08.219Z,102201.06
2017-09-27T04:59:36.887Z,102192.42
2017-09-27T05:02:05.369Z,102196.71
2017-09-27T05:04:34.030Z,102197.58
2017-09-27T05:07:02.696Z,102192.84
2017-09-27T05:09:31.383Z,102195.72
2017-09-27T05:12:00.039Z,102198.72
2017-09-27T05:14:28.701Z,102196.17
2017-09-27T05:16:57.357Z,102195.75
2017-09-27T05:19:25.995Z,102203.08
2017-09-27T05:21:54.618Z,102205.59
2017-09-27T05:24:23.327Z,102204.72
2017-09-27T05:26:52.004Z,102203.41
2017-09-27T05:29:20.613Z,102203.34
2017-09-27T05:31:49.232Z,102207.60
2017-09-27T05:34:17.887Z,102208.44
2017-09-27T05:36:46.525Z,102208.45
2017-09-27T05:39:15.193Z,102214.45
2017-09-27T05:41:43.808Z,102208.80
2017-09-27T05:44:12.434Z,102211.81
2017-09-27T05:46:41.102Z,102213.58
2017-09-27T05:49:09.585Z,102212.70
2017-09-27T05:51:38.373Z,102210.03
2017-09-27T05:54:07.028Z,102214.30
2017-09-27T05:56:35.563Z,102217.69
2017-09-27T05:59:04.197Z,102217.23
2017-09-27T06:01:32.868Z,102215.05
2017-09-27T06:04:01.535Z,102211.62
2017-09-27T06:06:30.210Z,102214.66
2017-09-27T06:08:58.869Z,102206.03
2017-09-27T06:11:27.507Z,102214.14
2017-09-27T06:13:56.166Z,102211.08
2017-09-27T06:16:24.784Z,102220.08
2017-09-27T06:18:53.399Z,102218.34
2017-09-27T06:21:22.078Z,102224.34
2017-09-27T06:23:50.718Z,102225.64
2017-09-27T06:26:19.398Z,102227.77
2017-09-27T06:28:48.025Z,102225.12
2017-09-27T06:31:16.522Z,102228.58
2017-09-27T06:33:45.174Z,102230.27
2017-09-27T06:36:13.840Z,102237.08
2017-09-27T06:38:42.449Z,102234.07
2017-09-27T06:41:11.094Z,102243.05
2017-09-27T06:43:39.772Z,102240.47
2017-09-27T06:46:08.489Z,102245.19
2017-09-27T06:48:37.802Z,102238.28
2017-09-27T06:51:06.437Z,102234.30
2017-09-27T06:53:35.109Z,102239.89
2017-09-27T06:56:03.738Z,102243.31
2017-09-27T06:58:34.895Z,102243.32
2017-09-27T07:01:03.566Z,102246.30
2017-09-27T07:03:32.242Z,102246.30
2017-09-27T07:06:00.912Z,102247.13
2017-09-27T07:08:29.607Z,102250.55
2017-09-27T07:10:58.287Z,102250.49
2017-09-27T07:13:26.980Z,102248.36
2017-09-27T07:15:55.590Z,102245.77
2017-09-27T07:18:24.204Z,102257.34
2017-09-27T07:20:52.861Z,102250.85
2017-09-27T07:23:21.477Z,102255.12
2017-09-27T07:25:50.221Z,102252.50
2017-09-27T07:28:18.863Z,102252.02
2017-09-27T07:30:47.514Z,102249.86
2017-09-27T07:33:16.058Z,102250.70
2017-09-27T07:35:44.742Z,102253.25
2017-09-27T07:38:13.358Z,102257.52
2017-09-27T07:40:42.011Z,102256.16
2017-09-27T07:43:10.621Z,102262.17
2017-09-27T07:45:39.323Z,102259.97
2017-09-27T07:48:07.941Z,102262.52
2017-09-27T07:50:36.565Z,102268.92
2017-09-27T07:53:05.215Z,102264.98
2017-09-27T07:55:33.866Z,102261.46
2017-09-27T07:58:02.489Z,102266.18
2017-09-27T08:00:31.100Z,102266.57
2017-09-27T08:02:59.781Z,102264.83
2017-09-27T08:05:28.469Z,102269.51
2017-09-27T08:07:57.129Z,102269.00
2017-09-27T08:10:25.797Z,102271.52
2017-09-27T08:12:54.405Z,102275.30
2017-09-27T08:15:23.073Z,102277.81
2017-09-27T08:17:51.695Z,102270.84
2017-09-27T08:20:20.361Z,102270.36
2017-09-27T08:22:48.989Z,102270.33
2017-09-27T08:25:17.672Z,102269.42
2017-09-27T08:27:46.277Z,102258.08
2017-09-27T08:30:14.893Z,102263.58
2017-09-27T08:32:43.546Z,102258.38
2017-09-27T08:35:12.243Z,102256.14
2017-09-27T08:37:40.898Z,102257.37
2017-09-27T08:40:09.543Z,102258.12
2017-09-27T08:42:38.227Z,102259.73
2017-09-27T08:45:06.845Z,102245.45
2017-09-27T08:47:35.509Z,102248.70
2017-09-27T08:50:04.170Z,102249.87
2017-09-27T08:52:32.852Z,102244.63
2017-09-27T08:55:01.466Z,102242.40
2017-09-27T08:57:30.139Z,102246.59
2017-09-27T08:59:58.781Z,102245.20
2017-09-27T09:02:27.410Z,102247.66
2017-09-27T09:04:56.173Z,102238.98
2017-09-27T09:07:24.639Z,102243.12
2017-09-27T09:09:53.310Z,102240.02
2017-09-27T09:12:21.922Z,102247.25
2017-09-27T09:14:50.615Z,102231.24
2017-09-27T09:17:19.230Z,102237.13
2017-09-27T09:19:47.901Z,102240.05
2017-09-27T09:22:16.549Z,102240.30
2017-09-27T09:24:45.180Z,102239.36
2017-09-27T09:27:13.842Z,102242.16
2017-09-27T09:29:42.495Z,102242.52
2017-09-27T09:32:11.118Z,102244.92
2017-09-27T09:34:39.794Z,102239.13
2017-09-27T09:37:08.481Z,102244.09
2017-09-27T09:39:37.134Z,102243.91
2017-09-27T09:42:05.745Z,102243.66
2017-09-27T09:44:34.486Z,102244.33
2017-09-27T09:47:03.145Z,102249.44
2017-09-27T09:49:31.819Z,102239.81
2017-09-27T09:52:00.430Z,102239.21
2017-09-27T09:54:29.126Z,102244.73
2017-09-27T09:56:57.761Z,102244.97
2017-09-27T09:59:26.473Z,102242.23
2017-09-27T10:01:55.086Z,102234.81
2017-09-27T10:04:23.745Z,102230.72
2017-09-27T10:06:52.420Z,102228.09
2017-09-27T10:09:21.026Z,102230.14
2017-09-27T10:11:49.679Z,102226.56
2017-09-27T10:14:18.299Z,102222.98
2017-09-27T10:16:46.974Z,102220.67
2017-09-27T10:19:15.602Z,102220.59
2017-09-27T10:21:44.321Z,102214.42
2017-09-27T10:24:12.978Z,102219.00
2017-09-27T10:26:41.589Z,102217.63
2017-09-27T10:29:10.384Z,102210.59
2017-09-27T10:31:38.989Z,102212.30
2017-09-27T10:34:07.677Z,102213.86
2017-09-27T10:36:36.303Z,102206.32
2017-09-27T10:39:04.413Z,102201.02
2017-09-27T10:41:33.083Z,102200.07
2017-09-27T10:44:01.751Z,102204.72
2017-09-27T10:46:30.408Z,102196.45
2017-09-27T10:48:59.022Z,102204.60
2017-09-27T10:51:27.683Z,102207.00
2017-09-27T10:53:56.313Z,102206.42
2017-09-27T10:56:24.970Z,102209.32
2017-09-27T10:58:53.592Z,102206.61
2017-09-27T11:01:22.249Z,102199.44
2017-09-27T11:03:50.873Z,102187.31
2017-09-27T11:06:19.539Z,102189.37
2017-09-27T11:08:48.179Z,102192.72
2017-09-27T11:11:16.889Z,102187.84
2017-09-27T11:13:45.566Z,102190.28
2017-09-27T11:16:15.613Z,102191.07
2017-09-27T11:18:44.226Z,102198.73
2017-09-27T11:21:12.934Z,102194.64
2017-09-27T11:23:41.601Z,102185.87
2017-09-27T11:26:10.265Z,102183.11
2017-09-27T11:28:38.894Z,102180.66
2017-09-27T11:31:07.557Z,102183.55
2017-09-27T11:33:36.189Z,102178.78
2017-09-27T11:36:04.821Z,102179.57
2017-09-27T11:38:35.423Z,102175.60
2017-09-27T11:41:04.113Z,102179.71
2017-09-27T11:43:32.778Z,102177.49
2017-09-27T11:46:01.381Z,102170.88
2017-09-27T11:51:05.303Z,102165.95
2017-09-27T11:53:33.990Z,102163.94
2017-09-27T11:56:02.615Z,102158.29
2017-09-27T11:58:34.790Z,102155.90
2017-09-27T12:01:03.452Z,102157.49
2017-09-27T12:03:31.975Z,102155.19
2017-09-27T12:06:00.606Z,102152.47
2017-09-27T12:08:29.226Z,102151.05
2017-09-27T12:10:57.909Z,102143.26
2017-09-27T12:13:26.546Z,102144.39
2017-09-27T12:15:55.162Z,102147.70
2017-09-27T12:18:23.825Z,102146.97
2017-09-27T12:20:52.433Z,102143.50
2017-09-27T12:23:21.108Z,102149.44
2017-09-27T12:25:49.723Z,102147.52
2017-09-27T12:28:18.389Z,102151.78
2017-09-27T12:30:47.006Z,102148.22
2017-09-27T12:33:15.639Z,102148.26
2017-09-27T12:35:44.335Z,102143.81
2017-09-27T12:38:12.958Z,102144.11
2017-09-27T12:40:41.654Z,102147.04
2017-09-27T12:43:10.270Z,102153.03
2017-09-27T12:45:38.948Z,102140.92
2017-09-27T12:48:07.574Z,102149.05
2017-09-27T12:50:36.242Z,102148.53
2017-09-27T12:53:04.905Z,102150.54
2017-09-27T12:55:33.570Z,102156.11
2017-09-27T12:58:02.194Z,102151.63
2017-09-27T13:00:30.852Z,102151.63
2017-09-27T13:02:59.532Z,102146.80
2017-09-27T13:05:28.154Z,102144.30
2017-09-27T13:07:56.827Z,102142.41
2017-09-27T13:10:25.453Z,102147.97
2017-09-27T13:12:54.066Z,102146.16
2017-09-27T13:15:22.738Z,102143.06
2017-09-27T13:17:51.399Z,102139.59
2017-09-27T13:20:20.067Z,102135.60
2017-09-27T13:22:48.696Z,102125.59
2017-09-27T13:25:17.305Z,102130.32
2017-09-27T13:27:45.970Z,102119.80
2017-09-27T13:30:14.598Z,102128.02
2017-09-27T13:32:43.262Z,102128.80
2017-09-27T13:35:11.889Z,102123.28
2017-09-27T13:37:40.513Z,102117.95
2017-09-27T13:40:09.173Z,102115.34
2017-09-27T13:42:37.813Z,102120.50
2017-09-27T13:45:06.485Z,102119.66
2017-09-27T13:47:35.103Z,102110.99
2017-09-27T13:50:03.727Z,102107.52
2017-09-27T13:52:32.386Z,102110.99
2017-09-27T13:55:01.070Z,102114.00
2017-09-27T13:57:29.707Z,102108.68
2017-09-27T13:59:58.372Z,102105.75
2017-09-27T14:02:27.037Z,102111.32
2017-09-27T14:04:55.718Z,102105.66
2017-09-27T14:07:24.334Z,102102.27
2017-09-27T14:09:52.966Z,102102.05
2017-09-27T14:12:21.700Z,102095.56
2017-09-27T14:14:50.309Z,102089.48
2017-09-27T14:17:18.968Z,102095.02
2017-09-27T14:19:47.603Z,102084.20
2017-09-27T14:22:16.292Z,102079.30
2017-09-27T14:24:44.909Z,102078.35
2017-09-27T14:27:13.522Z,102074.00
2017-09-27T14:29:42.211Z,102076.09
2017-09-27T14:32:10.880Z,102074.52
2017-09-27T14:34:39.497Z,102074.14
2017-09-27T14:37:08.135Z,102072.25
2017-09-27T14:39:36.801Z,102069.14
2017-09-27T14:42:05.494Z,102067.74
2017-09-27T14:44:34.134Z,102065.89
2017-09-27T14:47:02.789Z,102068.06
2017-09-27T14:49:31.425Z,102063.66
2017-09-27T14:52:13.812Z,102067.19
2017-09-27T14:54:43.257Z,102064.55
2017-09-27T14:57:11.942Z,102057.44
2017-09-27T14:59:40.593Z,102058.73
2017-09-27T15:02:09.237Z,102061.19
2017-09-27T15:04:37.905Z,102064.20
2017-09-27T15:07:06.567Z,102064.63
2017-09-27T15:09:35.253Z,102065.08
2017-09-27T15:12:03.875Z,102063.33
2017-09-27T15:14:32.498Z,102058.45
2017-09-27T15:17:01.145Z,102068.38
2017-09-27T15:19:29.770Z,102066.44
2017-09-27T15:21:58.465Z,102059.02
2017-09-27T15:24:27.160Z,102059.06
2017-09-27T15:26:55.770Z,102060.31
2017-09-27T15:29:24.392Z,102054.23
2017-09-27T15:31:53.058Z,102057.72
2017-09-27T15:34:21.718Z,102057.85
2017-09-27T15:36:50.382Z,102064.77
2017-09-27T15:39:19.029Z,102063.42
2017-09-27T15:41:47.712Z,102059.25
2017-09-27T15:44:16.366Z,102054.20
2017-09-27T15:46:45.022Z,102061.84
2017-09-27T15:49:13.648Z,102060.60
2017-09-27T15:51:42.338Z,102067.09
2017-09-27T15:54:10.953Z,102067.65
2017-09-27T15:56:39.631Z,102058.23
2017-09-27T15:59:08.253Z,102059.11
2017-09-27T16:01:39.331Z,102060.56
2017-09-27T16:04:08.003Z,102062.69
2017-09-27T16:06:36.634Z,102065.38
2017-09-27T16:09:04.837Z,102068.95
2017-09-27T16:11:33.461Z,102063.34
2017-09-27T16:14:02.131Z,102062.12
2017-09-27T16:16:30.783Z,102062.68
2017-09-27T16:18:59.406Z,102063.09
2017-09-27T16:21:28.074Z,102063.75
2017-09-27T16:23:56.857Z,102071.13
2017-09-27T16:26:25.521Z,102073.34
2017-09-27T16:28:54.191Z,102073.16
2017-09-27T16:31:22.845Z,102075.75
2017-09-27T16:33:51.459Z,102076.59
2017-09-27T16:36:20.164Z,102077.14
2017-09-27T16:38:48.790Z,102080.70
2017-09-27T16:41:17.401Z,102080.70
2017-09-27T16:43:46.071Z,102080.76
2017-09-27T16:46:14.698Z,102081.77
2017-09-27T16:48:43.351Z,102084.37
2017-09-27T16:51:11.974Z,102080.19
2017-09-27T16:53:40.634Z,102085.84
2017-09-27T16:56:09.302Z,102077.86
2017-09-27T16:58:37.970Z,102080.83
2017-09-27T17:01:06.606Z,102073.59
2017-09-27T17:03:35.282Z,102075.41
2017-09-27T17:06:03.942Z,102072.02
2017-09-27T17:08:35.006Z,102074.78
2017-09-27T17:11:03.664Z,102077.01
2017-09-27T17:13:32.334Z,102079.27
2017-09-27T17:16:00.971Z,102083.25
2017-09-27T17:18:29.634Z,102083.81
2017-09-27T17:20:58.237Z,102087.84
2017-09-27T17:23:26.893Z,102087.92
2017-09-27T17:25:59.316Z,102095.05
2017-09-27T17:28:28.078Z,102098.11
2017-09-27T17:31:06.781Z,102092.63
2017-09-27T17:33:48.204Z,102098.88
2017-09-27T17:36:27.016Z,102098.63
2017-09-27T17:39:00.739Z,102092.31
2017-09-27T17:41:43.239Z,102090.27
2017-09-27T17:44:19.288Z,102088.67
2017-09-27T17:47:02.455Z,102093.63
2017-09-27T17:49:39.369Z,102092.45
2017-09-27T17:52:20.993Z,102095.64
2017-09-27T17:55:03.360Z,102100.12
2017-09-27T17:57:41.673Z,102104.59
2017-09-27T18:00:22.311Z,102103.89
2017-09-27T18:03:01.084Z,102109.20
2017-09-27T18:09:13.800Z,102108.16
2017-09-27T18:12:00.562Z,102110.02
2017-09-27T18:14:46.647Z,102112.31
2017-09-27T18:17:32.015Z,102114.98
2017-09-27T18:20:16.372Z,102109.92
2017-09-27T18:22:58.177Z,102112.14
2017-09-27T18:25:40.031Z,102110.05
2017-09-27T18:28:21.828Z,102114.86
2017-09-27T18:31:04.288Z,102108.42
2017-09-27T18:33:45.620Z,102107.66
2017-09-27T18:36:27.019Z,102110.77
2017-09-27T18:39:07.898Z,102106.49
2017-09-27T18:41:45.711Z,102107.87
2017-09-27T18:44:27.714Z,102112.30
2017-09-27T18:47:06.326Z,102111.46
2017-09-27T18:49:49.142Z,102116.28
2017-09-27T18:52:28.980Z,102114.19
2017-09-27T18:55:07.155Z,102116.36
2017-09-27T18:57:49.477Z,102121.59
2017-09-27T19:00:36.740Z,102119.49
2017-09-27T19:03:07.528Z,102122.13
2017-09-27T19:05:51.504Z,102115.27
2017-09-27T19:08:33.051Z,102119.66
2017-09-27T19:11:14.656Z,102118.39
2017-09-27T19:13:53.464Z,102122.33
2017-09-27T19:16:24.429Z,102119.77
2017-09-27T19:18:58.851Z,102116.35
2017-09-27T19:21:29.958Z,102115.97
2017-09-27T19:24:00.309Z,102113.05
2017-09-27T19:26:30.840Z,102116.93
2017-09-27T19:29:03.737Z,102119.52
2017-09-27T19:31:34.752Z,102123.49
2017-09-27T19:34:07.984Z,102114.87
2017-09-27T19:36:38.586Z,102113.20
2017-09-27T19:39:09.972Z,102114.12
2017-09-27T19:41:41.637Z,102108.09
2017-09-27T19:44:18.038Z,102114.62
2017-09-27T19:46:49.052Z,102114.20
2017-09-27T19:49:20.130Z,102115.95
2017-09-27T19:51:54.884Z,102115.58
2017-09-27T19:54:26.192Z,102112.14
2017-09-27T19:56:55.813Z,102109.18
2017-09-27T19:59:27.479Z,102101.95
2017-09-27T20:01:58.296Z,102113.15
2017-09-27T20:04:29.058Z,102109.27
2017-09-27T20:06:57.809Z,102106.33
2017-09-27T20:09:31.358Z,102111.97
2017-09-27T20:12:01.253Z,102111.55
2017-09-27T20:14:30.486Z,102109.45
2017-09-27T20:17:01.061Z,102102.19
2017-09-27T20:19:31.615Z,102100.89
2017-09-27T20:22:00.940Z,102105.23
2017-09-27T20:24:31.387Z,102107.03
2017-09-27T20:27:06.728Z,102106.20
2017-09-27T20:29:39.088Z,102110.63
2017-09-27T20:32:11.051Z,102111.12
2017-09-27T20:34:40.544Z,102105.09
2017-09-27T20:37:09.161Z,102100.41
2017-09-27T20:39:37.809Z,102097.44
2017-09-27T20:42:06.443Z,102102.24
2017-09-27T20:44:35.112Z,102102.28
2017-09-27T20:47:03.738Z,102103.23
2017-09-27T20:49:32.366Z,102100.69
2017-09-27T20:52:01.066Z,102100.73
2017-09-27T20:54:33.579Z,102093.91
2017-09-27T20:57:06.037Z,102086.18
2017-09-27T20:59:38.642Z,102093.58
2017-09-27T21:02:16.397Z,102092.81
2017-09-27T21:04:48.302Z,102093.77
2017-09-27T21:07:20.147Z,102092.09
2017-09-27T21:09:51.201Z,102100.38
2017-09-27T21:12:22.357Z,102089.20
2017-09-27T21:14:54.060Z,102099.69
2017-09-27T21:17:25.681Z,102097.22
2017-09-27T21:19:56.355Z,102104.61
2017-09-27T21:22:25.086Z,102093.94
2017-09-27T21:25:07.891Z,102099.17
2017-09-27T21:27:48.518Z,102102.33
2017-09-27T21:30:24.899Z,102101.95
2017-09-27T21:33:05.785Z,102097.27
2017-09-27T21:35:37.729Z,102099.97
2017-09-27T21:38:09.503Z,102096.20
2017-09-27T21:40:41.695Z,102094.95
2017-09-27T21:43:13.860Z,102094.19
2017-09-27T21:45:45.334Z,102091.27
2017-09-27T21:48:14.009Z,102094.72
2017-09-27T21:50:42.616Z,102086.66
2017-09-27T21:53:11.297Z,102077.25
2017-09-27T21:55:39.938Z,102087.34
2017-09-27T21:58:08.574Z,102080.95
2017-09-27T22:00:37.241Z,102084.91
2017-09-27T22:03:05.907Z,102075.13
2017-09-27T22:05:34.085Z,102076.98
2017-09-27T22:08:02.702Z,102075.34
2017-09-27T22:10:31.358Z,102071.58
2017-09-27T22:13:00.011Z,102072.08
2017-09-27T22:15:28.635Z,102068.30
2017-09-27T22:17:57.268Z,102071.00
2017-09-27T22:20:26.010Z,102074.13
2017-09-27T22:22:54.649Z,102070.78
2017-09-27T22:25:23.337Z,102076.48
2017-09-27T22:27:51.986Z,102078.34
2017-09-27T22:30:20.617Z,102082.73
2017-09-27T22:32:49.329Z,102091.89
2017-09-27T22:35:17.983Z,102087.25
2017-09-27T22:37:46.645Z,102087.81
2017-09-27T22:40:15.249Z,102080.65
2017-09-27T22:42:43.910Z,102078.14
2017-09-27T22:45:12.575Z,102080.87
2017-09-27T22:47:41.186Z,102075.35
2017-09-27T22:50:10.250Z,102077.67
2017-09-27T22:52:38.927Z,102070.41
2017-09-27T22:55:07.604Z,102071.42
2017-09-27T22:57:36.223Z,102067.23
2017-09-27T23:00:04.924Z,102065.14
2017-09-27T23:02:33.539Z,102071.33
2017-09-27T23:05:02.154Z,102074.86
2017-09-27T23:07:30.808Z,102078.44
2017-09-27T23:09:59.433Z,102076.86
2017-09-27T23:12:36.100Z,102079.59
2017-09-27T23:15:12.423Z,102077.98
2017-09-27T23:17:49.074Z,102087.56
2017-09-27T23:20:23.008Z,102089.41
2017-09-27T23:22:58.274Z,102086.06
2017-09-27T23:25:32.352Z,102088.34
2017-09-27T23:28:09.114Z,102081.14
2017-09-27T23:30:46.796Z,102079.11
2017-09-27T23:33:27.785Z,102085.23
2017-09-27T23:36:07.305Z,102080.13
2017-09-27T23:38:47.537Z,102088.86
2017-09-27T23:41:25.830Z,102078.66
2017-09-27T23:44:01.058Z,102082.19
2017-09-27T23:46:36.048Z,102080.52
2017-09-27T23:49:07.255Z,102077.16
2017-09-27T23:51:35.994Z,102073.39
2017-09-27T23:54:04.610Z,102073.45
2017-09-27T23:56:33.270Z,102075.66
2017-09-27T23:59:02.032Z,102076.63
